Time;durP1;ratioP1;P1;durP2;ratioP2;P2;SDS_P1;SDS_P2;PMS_P1;PMS_P2;Temp;Humidity;BMP_temperature;BMP_pressure;BME280_temperature;BME280_humidity;BME280_pressure;Samples;Min_cycle;Max_cycle;Signal;HPM_P1;HPM_P2
2021/08/05 00:01:33;;;;;;;14.52;9.90;;;26.80;52.60;;;;;;5059260;28;20195;-76
2021/08/05 00:03:59;;;;;;;17.52;10.93;;;26.80;52.80;;;;;;5044340;28;20191;-76
2021/08/05 00:06:26;;;;;;;20.60;11.00;;;26.90;52.60;;;;;;5042887;28;20303;-76
2021/08/05 00:08:52;;;;;;;12.32;10.05;;;26.80;52.40;;;;;;5046547;28;20207;-75
2021/08/05 00:11:19;;;;;;;19.58;10.18;;;26.80;52.30;;;;;;5045875;28;20195;-75
2021/08/05 00:13:46;;;;;;;16.33;10.38;;;26.80;52.50;;;;;;5025724;28;20180;-75
2021/08/05 00:16:12;;;;;;;15.13;9.65;;;26.80;52.40;;;;;;5045844;28;20188;-76
2021/08/05 00:18:38;;;;;;;18.48;9.20;;;26.80;52.50;;;;;;5029691;28;20234;-76
2021/08/05 00:21:05;;;;;;;14.30;8.70;;;26.80;52.30;;;;;;5043865;28;20201;-76
2021/08/05 00:23:31;;;;;;;20.10;7.97;;;26.70;52.00;;;;;;5024993;28;20188;-76
2021/08/05 00:25:57;;;;;;;14.05;7.53;;;26.70;51.80;;;;;;5059272;28;20535;-76
2021/08/05 00:28:24;;;;;;;15.68;7.20;;;26.70;51.80;;;;;;5040514;28;20210;-76
2021/08/05 00:30:50;;;;;;;13.75;7.43;;;26.70;51.50;;;;;;5045994;28;20175;-76
2021/08/05 00:33:19;;;;;;;13.80;6.75;;;26.60;51.50;;;;;;5024630;28;20188;-75
2021/08/05 00:35:45;;;;;;;16.85;7.40;;;26.50;51.30;;;;;;5044764;28;20859;-75
2021/08/05 00:38:13;;;;;;;13.77;7.32;;;26.60;51.60;;;;;;5042274;28;20277;-76
2021/08/05 00:40:41;;;;;;;11.95;6.50;;;26.50;51.60;;;;;;5042853;28;20286;-75
2021/08/05 00:43:07;;;;;;;14.68;7.03;;;26.50;51.70;;;;;;5026619;28;20275;-75
2021/08/05 00:45:34;;;;;;;10.37;7.00;;;26.50;51.60;;;;;;5044661;28;20226;-76
2021/08/05 00:48:00;;;;;;;12.57;6.80;;;26.50;51.50;;;;;;5044192;28;20264;-75
2021/08/05 00:50:28;;;;;;;14.57;7.82;;;26.50;51.30;;;;;;5053840;28;20176;-75
2021/08/05 00:52:54;;;;;;;12.00;7.85;;;26.50;51.40;;;;;;5060909;28;20521;-76
2021/08/05 00:55:21;;;;;;;16.10;7.63;;;26.40;51.30;;;;;;5025610;28;20294;-75
2021/08/05 00:57:47;;;;;;;17.27;8.10;;;26.40;51.50;;;;;;5045272;28;20175;-77
2021/08/05 01:00:16;;;;;;;15.38;7.88;;;26.40;51.40;;;;;;5043309;28;20540;-76
2021/08/05 01:02:51;;;;;;;14.45;8.32;;;26.40;52.00;;;;;;5043770;28;20210;-76
2021/08/05 01:05:21;;;;;;;13.65;8.35;;;26.40;52.10;;;;;;5041219;28;20191;-75
2021/08/05 01:08:08;;;;;;;11.68;8.70;;;26.40;52.50;;;;;;5044463;28;20199;-76
2021/08/05 01:10:52;;;;;;;19.35;10.00;;;26.50;53.00;;;;;;5046028;28;20271;-75
2021/08/05 01:13:52;;;;;;;17.63;10.18;;;26.50;53.30;;;;;;5044158;28;21209;-75
2021/08/05 01:16:27;;;;;;;13.00;9.57;;;26.40;53.70;;;;;;5043084;28;20188;-75
2021/08/05 01:19:02;;;;;;;20.08;10.32;;;26.40;53.80;;;;;;5037590;28;20195;-75
2021/08/05 01:21:48;;;;;;;20.85;9.65;;;26.40;53.70;;;;;;5018183;28;20535;-75
2021/08/05 01:24:22;;;;;;;13.15;9.35;;;26.40;53.50;;;;;;5023579;28;20776;-75
2021/08/05 01:26:48;;;;;;;15.23;10.88;;;26.40;53.50;;;;;;5045336;28;20191;-75
2021/08/05 01:29:17;;;;;;;15.95;10.38;;;26.40;53.30;;;;;;5042763;28;20644;-75
2021/08/05 01:31:46;;;;;;;18.60;10.73;;;26.50;53.20;;;;;;5033176;28;20776;-75
2021/08/05 01:34:15;;;;;;;14.63;10.07;;;26.50;53.30;;;;;;5045350;28;20188;-74
2021/08/05 01:36:47;;;;;;;12.40;9.88;;;26.50;53.20;;;;;;5044053;28;20283;-75
2021/08/05 01:39:14;;;;;;;15.75;10.00;;;26.50;53.20;;;;;;5044368;28;20187;-75
2021/08/05 01:41:42;;;;;;;16.80;9.07;;;26.50;52.90;;;;;;5047983;28;20253;-75
2021/08/05 01:44:12;;;;;;;16.40;9.85;;;26.50;52.90;;;;;;5040320;28;20196;-75
2021/08/05 01:46:42;;;;;;;14.70;9.30;;;26.50;52.80;;;;;;5048258;28;20675;-75
2021/08/05 01:49:09;;;;;;;21.50;9.95;;;26.40;52.70;;;;;;5044101;28;20289;-75
2021/08/05 01:51:36;;;;;;;15.32;9.15;;;26.30;52.50;;;;;;5026300;28;20592;-76
2021/08/05 01:54:05;;;;;;;16.23;8.23;;;26.30;52.50;;;;;;5044301;28;20192;-75
2021/08/05 01:56:31;;;;;;;17.70;8.75;;;26.30;52.40;;;;;;5060595;28;20211;-74
2021/08/05 01:58:59;;;;;;;15.40;8.27;;;26.20;52.30;;;;;;5042227;28;20302;-75
2021/08/05 02:01:27;;;;;;;35.42;9.20;;;26.20;52.10;;;;;;5042599;28;20210;-75
2021/08/05 02:04:13;;;;;;;22.10;9.32;;;26.20;52.30;;;;;;5043630;28;20241;-75
2021/08/05 02:06:54;;;;;;;17.98;8.73;;;26.20;52.30;;;;;;5048462;28;20202;-75
2021/08/05 02:09:32;;;;;;;20.20;8.43;;;26.20;52.20;;;;;;5060590;28;20239;-75
2021/08/05 02:12:00;;;;;;;22.33;9.20;;;26.20;52.30;;;;;;5049132;28;20191;-75
2021/08/05 02:14:30;;;;;;;28.52;9.38;;;26.20;52.20;;;;;;5044145;28;20187;-74
2021/08/05 02:17:01;;;;;;;24.83;8.87;;;26.20;52.30;;;;;;5046031;28;20184;-75
2021/08/05 02:19:31;;;;;;;14.35;8.68;;;26.20;52.20;;;;;;5043772;28;20187;-74
2021/08/05 02:21:59;;;;;;;17.05;8.43;;;26.30;52.40;;;;;;5046491;28;20191;-75
2021/08/05 02:24:30;;;;;;;16.70;8.70;;;26.30;53.10;;;;;;5057764;28;20258;-75
2021/08/05 02:27:00;;;;;;;14.35;8.02;;;26.20;52.10;;;;;;5046951;28;20194;-74
2021/08/05 02:29:29;;;;;;;15.85;8.63;;;26.20;52.20;;;;;;5047015;28;20219;-76
2021/08/05 02:31:57;;;;;;;13.00;8.18;;;26.30;52.00;;;;;;5044442;28;20325;-75
2021/08/05 02:34:24;;;;;;;15.05;7.72;;;26.30;51.90;;;;;;5044580;28;20199;-75
2021/08/05 02:36:53;;;;;;;14.32;7.30;;;26.30;51.80;;;;;;5046849;28;20674;-74
2021/08/05 02:39:19;;;;;;;16.13;7.65;;;26.30;51.50;;;;;;5030341;28;20187;-75
2021/08/05 02:41:49;;;;;;;15.48;7.53;;;26.30;51.40;;;;;;5028100;28;20674;-75
2021/08/05 02:44:17;;;;;;;15.50;7.10;;;26.30;51.30;;;;;;5045926;28;20199;-75
2021/08/05 02:46:47;;;;;;;18.70;7.10;;;26.30;51.50;;;;;;5042837;28;20219;-75
2021/08/05 02:49:16;;;;;;;19.83;7.78;;;26.40;51.70;;;;;;5046407;28;20216;-75
2021/08/05 02:51:45;;;;;;;13.13;7.18;;;26.40;51.30;;;;;;5044662;28;20624;-75
2021/08/05 02:54:16;;;;;;;11.40;6.90;;;26.40;51.30;;;;;;5045541;28;20180;-75
2021/08/05 02:56:43;;;;;;;10.43;6.88;;;26.40;51.00;;;;;;5026207;28;20545;-75
2021/08/05 02:59:09;;;;;;;17.42;6.68;;;26.40;51.20;;;;;;5044655;28;20275;-74
2021/08/05 03:01:36;;;;;;;21.42;6.68;;;26.40;50.90;;;;;;5027995;28;20216;-74
2021/08/05 03:04:02;;;;;;;11.60;6.07;;;26.40;50.70;;;;;;5027732;28;21381;-75
2021/08/05 03:06:31;;;;;;;10.68;6.38;;;26.40;51.10;;;;;;5043244;28;20239;-75
2021/08/05 03:08:57;;;;;;;12.32;6.18;;;26.40;50.70;;;;;;5043896;28;20488;-75
2021/08/05 03:11:24;;;;;;;11.60;5.72;;;26.40;50.40;;;;;;5045366;28;20187;-75
2021/08/05 03:13:50;;;;;;;15.57;6.10;;;26.40;50.90;;;;;;5045268;28;20184;-75
2021/08/05 03:16:17;;;;;;;12.57;5.70;;;26.50;50.50;;;;;;5038417;28;20188;-75
2021/08/05 03:18:44;;;;;;;11.68;5.50;;;26.50;51.00;;;;;;5044147;28;20203;-75
2021/08/05 03:21:11;;;;;;;13.15;5.57;;;26.50;50.80;;;;;;5043705;28;20194;-75
2021/08/05 03:23:37;;;;;;;11.82;5.18;;;26.50;50.80;;;;;;5041524;28;20214;-75
2021/08/05 03:26:04;;;;;;;10.07;5.82;;;26.50;50.70;;;;;;5042884;28;20719;-75
2021/08/05 03:28:30;;;;;;;15.38;6.05;;;26.50;50.90;;;;;;5045745;28;20204;-75
2021/08/05 03:30:56;;;;;;;14.43;5.75;;;26.50;51.10;;;;;;5043244;28;20265;-75
2021/08/05 03:33:23;;;;;;;10.20;5.72;;;26.50;51.10;;;;;;5028639;28;20188;-75
2021/08/05 03:35:49;;;;;;;14.25;5.47;;;26.50;51.00;;;;;;5043400;28;20248;-75
2021/08/05 03:38:15;;;;;;;13.50;5.30;;;26.50;51.80;;;;;;5044824;28;20184;-75
2021/08/05 03:40:42;;;;;;;8.75;4.95;;;26.50;51.50;;;;;;5022798;28;20200;-75
2021/08/05 03:43:08;;;;;;;11.10;5.28;;;26.50;51.70;;;;;;5041729;28;20200;-75
2021/08/05 03:45:34;;;;;;;14.88;6.00;;;26.50;51.50;;;;;;5030193;28;20219;-75
2021/08/05 03:48:01;;;;;;;10.52;5.93;;;26.40;51.70;;;;;;5044169;28;20226;-74
2021/08/05 03:50:27;;;;;;;12.10;6.18;;;26.50;52.10;;;;;;5061182;28;20187;-75
2021/08/05 03:52:55;;;;;;;25.50;7.68;;;26.50;52.40;;;;;;5042063;28;20195;-75
2021/08/05 03:55:22;;;;;;;17.70;6.43;;;26.50;52.70;;;;;;5044153;28;20188;-76
2021/08/05 03:57:48;;;;;;;12.27;6.03;;;26.50;52.80;;;;;;5042493;28;20230;-75
2021/08/05 04:00:17;;;;;;;14.05;6.55;;;26.50;52.70;;;;;;5030932;28;20271;-75
2021/08/05 04:02:44;;;;;;;9.52;5.38;;;26.50;53.10;;;;;;5042378;28;20651;-75
2021/08/05 04:05:12;;;;;;;11.85;6.05;;;26.50;53.00;;;;;;5039044;28;20184;-75
2021/08/05 04:07:39;;;;;;;13.23;5.85;;;26.60;53.00;;;;;;5046699;28;20576;-75
2021/08/05 04:10:07;;;;;;;14.57;6.53;;;26.60;53.30;;;;;;5044876;28;20919;-75
2021/08/05 04:12:33;;;;;;;14.35;6.13;;;26.60;53.80;;;;;;5043920;28;20186;-75
2021/08/05 04:14:59;;;;;;;15.43;6.32;;;26.60;53.60;;;;;;5048666;28;20675;-75
2021/08/05 04:17:26;;;;;;;9.15;5.63;;;26.60;53.60;;;;;;5050197;28;20183;-75
2021/08/05 04:19:52;;;;;;;16.35;6.22;;;26.60;54.00;;;;;;5028712;28;20202;-75
2021/08/05 04:22:19;;;;;;;8.93;5.47;;;26.60;54.20;;;;;;5045057;28;20773;-75
2021/08/05 04:24:45;;;;;;;15.68;6.97;;;26.70;53.80;;;;;;5046592;28;20194;-75
2021/08/05 04:27:11;;;;;;;11.63;6.63;;;26.70;54.10;;;;;;5049860;28;20698;-75
2021/08/05 04:29:37;;;;;;;19.48;6.68;;;26.70;53.90;;;;;;5024278;28;20302;-75
2021/08/05 04:32:04;;;;;;;13.77;6.38;;;26.80;54.30;;;;;;5045507;28;20584;-74
2021/08/05 04:34:30;;;;;;;11.75;6.63;;;26.80;54.30;;;;;;5043670;28;20632;-75
2021/08/05 04:36:57;;;;;;;13.05;6.72;;;26.80;55.10;;;;;;5043449;28;20287;-75
2021/08/05 04:39:23;;;;;;;11.07;6.18;;;26.90;55.10;;;;;;5043919;28;20233;-75
2021/08/05 04:41:50;;;;;;;10.30;6.00;;;26.90;55.00;;;;;;5026924;28;20759;-75
2021/08/05 04:44:16;;;;;;;14.32;6.65;;;26.90;55.20;;;;;;5027729;28;20194;-74
2021/08/05 04:46:42;;;;;;;12.98;6.43;;;26.90;55.20;;;;;;5028661;28;20222;-75
2021/08/05 04:49:08;;;;;;;13.07;6.88;;;26.90;55.60;;;;;;5045304;28;20711;-75
2021/08/05 04:51:35;;;;;;;9.55;6.88;;;27.00;56.20;;;;;;5045686;28;20275;-74
2021/08/05 04:54:03;;;;;;;15.82;6.75;;;27.00;56.80;;;;;;5044720;28;20187;-75
2021/08/05 04:56:33;;;;;;;11.05;6.60;;;27.00;56.40;;;;;;5045686;28;20236;-75
2021/08/05 04:59:00;;;;;;;9.50;5.97;;;27.10;56.30;;;;;;5027276;28;20191;-75
2021/08/05 05:01:26;;;;;;;16.00;7.40;;;27.10;56.00;;;;;;5044003;28;20180;-75
2021/08/05 05:03:53;;;;;;;11.45;6.05;;;27.20;56.20;;;;;;5044692;28;20188;-75
2021/08/05 05:06:19;;;;;;;12.57;6.45;;;27.20;56.80;;;;;;5042942;28;20288;-74
2021/08/05 05:08:45;;;;;;;11.88;6.50;;;27.20;56.90;;;;;;5046285;28;20256;-75
2021/08/05 05:11:11;;;;;;;9.27;6.82;;;27.20;57.10;;;;;;5057880;28;20917;-75
2021/08/05 05:13:38;;;;;;;10.70;6.53;;;27.30;57.10;;;;;;5042494;28;20659;-75
2021/08/05 05:16:05;;;;;;;13.60;6.20;;;27.40;57.20;;;;;;5044881;28;20206;-75
2021/08/05 05:18:31;;;;;;;10.93;6.65;;;27.40;57.40;;;;;;5047420;28;20194;-75
2021/08/05 05:20:58;;;;;;;11.18;6.25;;;27.50;57.10;;;;;;5043245;28;20211;-75
2021/08/05 05:23:24;;;;;;;13.52;6.32;;;27.50;57.50;;;;;;5044058;28;20677;-75
2021/08/05 05:25:51;;;;;;;10.90;6.53;;;27.60;57.80;;;;;;5028443;28;20222;-75
2021/08/05 05:28:18;;;;;;;14.75;7.10;;;27.60;57.80;;;;;;5043393;28;20211;-75
2021/08/05 05:30:44;;;;;;;9.88;5.93;;;27.60;57.80;;;;;;5028364;28;20202;-75
2021/08/05 05:33:11;;;;;;;11.48;6.60;;;27.60;58.20;;;;;;5028748;28;20211;-75
2021/08/05 05:35:38;;;;;;;12.88;7.05;;;27.70;58.20;;;;;;5047910;28;20575;-74
2021/08/05 05:38:06;;;;;;;9.77;6.00;;;27.70;57.80;;;;;;5030125;28;20192;-75
2021/08/05 05:40:34;;;;;;;11.32;6.28;;;27.70;57.40;;;;;;5050354;28;20276;-75
2021/08/05 05:43:00;;;;;;;15.77;6.88;;;27.70;57.20;;;;;;5045982;28;20187;-74
2021/08/05 05:45:28;;;;;;;13.63;6.40;;;27.90;56.20;;;;;;5031733;28;20261;-75
2021/08/05 05:47:55;;;;;;;17.88;6.43;;;28.00;54.70;;;;;;5048005;28;20211;-75
2021/08/05 05:50:21;;;;;;;19.10;5.90;;;28.00;55.60;;;;;;5061833;28;20248;-75
2021/08/05 05:52:49;;;;;;;21.95;6.63;;;28.40;53.40;;;;;;5046308;28;20187;-76
2021/08/05 05:55:16;;;;;;;13.95;5.78;;;28.70;53.30;;;;;;5049639;28;20241;-75
2021/08/05 05:57:42;;;;;;;22.10;6.38;;;28.70;53.50;;;;;;5049692;28;20193;-75
2021/08/05 06:00:10;;;;;;;18.60;6.57;;;28.80;51.60;;;;;;5046059;28;20555;-75
2021/08/05 06:02:37;;;;;;;14.82;6.32;;;29.00;51.20;;;;;;5027396;28;20227;-75
2021/08/05 06:05:05;;;;;;;14.38;6.18;;;29.10;52.10;;;;;;5031123;28;20551;-75
2021/08/05 06:07:42;;;;;;;14.60;6.22;;;29.00;53.30;;;;;;5058964;28;20207;-75
2021/08/05 06:10:11;;;;;;;11.50;6.13;;;29.10;52.20;;;;;;5028925;28;20187;-76
2021/08/05 06:12:37;;;;;;;11.25;6.07;;;29.20;52.20;;;;;;5031605;28;20632;-74
2021/08/05 06:15:05;;;;;;;11.85;6.43;;;29.20;53.80;;;;;;5043606;28;20294;-75
2021/08/05 06:17:31;;;;;;;18.30;7.05;;;29.20;53.40;;;;;;5044822;28;20696;-75
2021/08/05 06:19:59;;;;;;;15.93;6.53;;;29.40;52.00;;;;;;5044898;28;20199;-75
2021/08/05 06:22:26;;;;;;;21.20;7.28;;;29.60;51.90;;;;;;5044730;28;20192;-75
2021/08/05 06:24:52;;;;;;;17.70;7.40;;;29.70;52.40;;;;;;5046783;28;20214;-75
2021/08/05 06:27:22;;;;;;;16.13;7.53;;;29.70;51.80;;;;;;5047182;28;20192;-75
2021/08/05 06:29:49;;;;;;;22.70;8.43;;;29.80;53.00;;;;;;5048692;28;20564;-75
2021/08/05 06:32:16;;;;;;;18.75;7.63;;;29.70;52.50;;;;;;5045952;28;20192;-75
2021/08/05 06:34:42;;;;;;;22.52;8.13;;;29.90;51.50;;;;;;5046139;28;20192;-75
2021/08/05 06:37:12;;;;;;;33.30;7.63;;;30.00;51.10;;;;;;5045615;28;20858;-75
2021/08/05 06:39:38;;;;;;;21.77;7.63;;;30.20;51.50;;;;;;5047409;28;20190;-76
2021/08/05 06:42:05;;;;;;;16.63;7.47;;;30.20;51.50;;;;;;5030470;28;20184;-75
2021/08/05 06:44:35;;;;;;;16.42;7.50;;;30.20;51.70;;;;;;5047615;28;20214;-75
2021/08/05 06:47:06;;;;;;;13.13;7.57;;;30.40;50.40;;;;;;5047597;28;20211;-75
2021/08/05 06:49:33;;;;;;;18.45;7.60;;;30.40;51.20;;;;;;5063609;28;20254;-72
2021/08/05 06:51:59;;;;;;;18.60;8.02;;;30.30;50.80;;;;;;5029982;28;20210;-75
2021/08/05 06:54:26;;;;;;;23.30;7.93;;;30.50;51.40;;;;;;5034825;28;20184;-75
2021/08/05 06:56:52;;;;;;;15.95;7.88;;;30.50;51.80;;;;;;5046661;28;20192;-75
2021/08/05 06:59:19;;;;;;;19.95;8.27;;;30.60;51.90;;;;;;5030881;28;20231;-75
2021/08/05 07:01:46;;;;;;;15.43;7.68;;;30.60;51.90;;;;;;5047084;28;20192;-75
2021/08/05 07:04:13;;;;;;;14.35;7.55;;;30.50;53.40;;;;;;5029863;28;20191;-75
2021/08/05 07:06:40;;;;;;;22.20;8.73;;;30.80;53.90;;;;;;5030631;28;20192;-75
2021/08/05 07:09:06;;;;;;;25.40;10.25;;;30.80;54.30;;;;;;5029714;28;20242;-75
2021/08/05 07:11:33;;;;;;;21.48;9.70;;;31.00;54.30;;;;;;5027565;28;20184;-73
2021/08/05 07:13:59;;;;;;;17.67;8.93;;;31.00;54.20;;;;;;5028540;28;20214;-73
2021/08/05 07:16:26;;;;;;;19.40;9.48;;;30.90;55.10;;;;;;5044087;28;20183;-73
2021/08/05 07:18:52;;;;;;;20.77;8.45;;;31.00;54.80;;;;;;5045653;28;20597;-73
2021/08/05 07:21:19;;;;;;;21.48;10.93;;;31.10;54.70;;;;;;5045066;28;20188;-73
2021/08/05 07:23:46;;;;;;;18.20;9.57;;;31.20;55.50;;;;;;5044129;28;20524;-73
2021/08/05 07:26:13;;;;;;;22.52;10.07;;;31.30;55.70;;;;;;5025162;28;20194;-72
2021/08/05 07:28:40;;;;;;;29.30;12.10;;;31.40;56.00;;;;;;5043985;28;20365;-73
2021/08/05 07:31:07;;;;;;;29.40;12.88;;;31.30;55.90;;;;;;5031448;28;20194;-73
2021/08/05 07:33:35;;;;;;;22.38;13.55;;;31.50;56.00;;;;;;5042069;28;20191;-73
2021/08/05 07:36:02;;;;;;;39.28;12.93;;;31.60;57.00;;;;;;5028190;28;20186;-73
2021/08/05 07:38:28;;;;;;;24.65;12.43;;;31.60;56.90;;;;;;5044247;28;20658;-74
2021/08/05 07:40:55;;;;;;;23.80;11.80;;;31.50;57.30;;;;;;5058515;28;20207;-73
2021/08/05 07:43:22;;;;;;;26.15;10.45;;;31.60;56.80;;;;;;5028129;28;20710;-73
2021/08/05 07:45:49;;;;;;;20.95;10.65;;;31.80;56.50;;;;;;5062550;28;20223;-74
2021/08/05 07:48:15;;;;;;;22.35;12.00;;;31.80;57.50;;;;;;5047990;28;20210;-74
2021/08/05 07:50:42;;;;;;;30.85;11.60;;;32.10;57.30;;;;;;5058549;28;20184;-73
2021/08/05 07:53:08;;;;;;;35.63;11.10;;;32.20;58.50;;;;;;5042840;28;21475;-73
2021/08/05 07:55:35;;;;;;;27.63;11.07;;;32.40;59.40;;;;;;5032155;28;20775;-73
2021/08/05 07:58:01;;;;;;;25.75;11.75;;;32.50;59.10;;;;;;5044812;28;20266;-73
2021/08/05 08:00:27;;;;;;;27.17;12.18;;;32.60;59.40;;;;;;5044948;28;20196;-74
2021/08/05 08:02:53;;;;;;;23.90;11.70;;;32.70;59.60;;;;;;5045944;28;20241;-73
2021/08/05 08:05:20;;;;;;;29.40;10.38;;;32.70;60.20;;;;;;5043649;28;20179;-73
2021/08/05 08:07:47;;;;;;;18.60;9.02;;;32.80;61.80;;;;;;5062235;28;20199;-73
2021/08/05 08:10:14;;;;;;;21.17;8.68;;;32.80;64.80;;;;;;5029607;28;20194;-73
2021/08/05 08:12:41;;;;;;;20.60;9.38;;;32.90;66.10;;;;;;5029107;28;20207;-73
2021/08/05 08:15:08;;;;;;;20.58;10.05;;;32.90;66.10;;;;;;5042084;28;20211;-74
2021/08/05 08:17:34;;;;;;;24.48;9.15;;;32.90;66.20;;;;;;5028289;28;20836;-74
2021/08/05 08:20:01;;;;;;;25.20;10.35;;;33.10;65.50;;;;;;5050041;28;20203;-73
2021/08/05 08:22:27;;;;;;;22.02;9.40;;;33.20;63.50;;;;;;5028211;28;20175;-73
2021/08/05 08:24:54;;;;;;;21.65;9.02;;;33.20;62.20;;;;;;5041290;28;20329;-72
2021/08/05 08:27:20;;;;;;;21.83;10.40;;;33.20;63.60;;;;;;5026901;28;20191;-73
2021/08/05 08:29:46;;;;;;;26.23;11.07;;;33.20;63.40;;;;;;5042960;28;20360;-74
2021/08/05 08:32:13;;;;;;;21.65;9.77;;;33.40;63.60;;;;;;5042926;28;21119;-73
2021/08/05 08:34:39;;;;;;;22.92;9.75;;;33.30;62.40;;;;;;5027777;28;20759;-73
2021/08/05 08:37:06;;;;;;;27.95;10.38;;;33.30;62.70;;;;;;5042116;28;20719;-74
2021/08/05 08:39:32;;;;;;;27.98;9.43;;;33.50;61.90;;;;;;5025927;28;20188;-74
2021/08/05 08:42:00;;;;;;;27.08;9.90;;;33.50;62.60;;;;;;5050523;28;20193;-73
2021/08/05 08:44:26;;;;;;;27.92;10.55;;;33.50;61.30;;;;;;5045187;28;20689;-73
2021/08/05 08:46:54;;;;;;;24.17;9.55;;;33.60;57.80;;;;;;5046215;28;20707;-73
2021/08/05 08:49:24;;;;;;;23.35;9.23;;;33.70;59.10;;;;;;5041677;28;20731;-73
2021/08/05 08:51:54;;;;;;;25.73;10.43;;;33.80;56.00;;;;;;5042032;28;20187;-73
2021/08/05 08:54:23;;;;;;;27.33;9.30;;;34.00;57.40;;;;;;5041910;28;20196;-74
2021/08/05 08:56:52;;;;;;;25.70;8.10;;;33.90;54.50;;;;;;5028078;28;20224;-74
2021/08/05 08:59:20;;;;;;;16.80;7.30;;;34.00;53.50;;;;;;5044436;28;20191;-73
2021/08/05 09:01:47;;;;;;;19.70;7.65;;;34.20;47.30;;;;;;5041221;28;20199;-73
2021/08/05 09:04:15;;;;;;;26.00;9.25;;;34.10;52.40;;;;;;5061154;28;20260;-74
2021/08/05 09:06:48;;;;;;;23.45;8.32;;;34.40;51.10;;;;;;5060560;28;20187;-74
2021/08/05 09:09:15;;;;;;;15.15;7.85;;;34.50;51.90;;;;;;5044207;28;20210;-73
2021/08/05 09:11:41;;;;;;;23.08;8.20;;;34.40;55.20;;;;;;5043919;28;20180;-74
2021/08/05 09:14:10;;;;;;;16.17;7.82;;;34.40;58.40;;;;;;5042440;28;20184;-73
2021/08/05 09:16:37;;;;;;;27.25;8.32;;;34.60;58.90;;;;;;5054733;28;20175;-74
2021/08/05 09:19:19;;;;;;;17.73;7.80;;;34.50;63.80;;;;;;5030699;28;20188;-74
2021/08/05 09:22:00;;;;;;;15.60;7.40;;;34.80;62.40;;;;;;5048203;28;20713;-75
2021/08/05 09:24:30;;;;;;;16.27;7.60;;;34.80;61.80;;;;;;5050254;28;20296;-75
2021/08/05 09:26:59;;;;;;;13.38;7.72;;;34.90;61.10;;;;;;5034508;28;20187;-75
2021/08/05 09:29:27;;;;;;;18.05;7.40;;;34.90;58.90;;;;;;5034834;28;20276;-76
2021/08/05 09:32:03;;;;;;;11.95;7.05;;;35.10;58.40;;;;;;5051148;28;20183;-74
2021/08/05 09:34:42;;;;;;;21.92;7.65;;;35.00;58.20;;;;;;5029652;28;20183;-74
2021/08/05 09:37:14;;;;;;;15.15;7.65;;;35.00;60.60;;;;;;5033314;28;20632;-75
2021/08/05 09:39:45;;;;;;;19.45;8.05;;;35.10;63.40;;;;;;5045965;28;20756;-74
2021/08/05 09:42:13;;;;;;;18.90;8.02;;;35.10;62.30;;;;;;5032499;28;20180;-73
2021/08/05 09:44:41;;;;;;;16.92;8.32;;;35.30;63.60;;;;;;5051040;28;20175;-74
2021/08/05 09:47:16;;;;;;;22.67;8.60;;;35.50;61.70;;;;;;5032430;28;20591;-74
2021/08/05 09:49:46;;;;;;;19.27;9.43;;;35.40;64.70;;;;;;5029481;28;20663;-74
2021/08/05 09:52:28;;;;;;;17.67;9.00;;;35.60;64.10;;;;;;5023517;28;20187;-74
2021/08/05 09:54:55;;;;;;;21.17;8.88;;;35.60;62.40;;;;;;5033283;28;20194;-75
2021/08/05 09:57:37;;;;;;;26.17;10.00;;;35.70;62.30;;;;;;5049112;28;20233;-75
2021/08/05 10:00:13;;;;;;;20.13;9.95;;;36.00;61.60;;;;;;5043171;28;20198;-75
2021/08/05 10:02:44;;;;;;;21.13;10.00;;;36.60;61.30;;;;;;5045190;28;20628;-75
2021/08/05 10:05:17;;;;;;;19.80;10.15;;;36.30;61.60;;;;;;5047268;28;20835;-75
2021/08/05 10:07:56;;;;;;;23.48;10.68;;;36.30;60.50;;;;;;5052286;28;20667;-75
2021/08/05 10:10:26;;;;;;;22.13;10.48;;;36.60;59.80;;;;;;5047233;28;20222;-75
2021/08/05 10:13:01;;;;;;;25.42;11.10;;;36.70;58.70;;;;;;5067206;28;20926;-75
2021/08/05 10:15:30;;;;;;;26.20;11.68;;;37.10;57.80;;;;;;5047373;28;20708;-74
2021/08/05 10:18:00;;;;;;;21.88;11.63;;;37.00;56.70;;;;;;5048238;28;20195;-75
2021/08/05 10:20:29;;;;;;;22.05;11.35;;;37.10;56.90;;;;;;5032748;28;20530;-75
2021/08/05 10:22:57;;;;;;;21.88;10.65;;;37.00;58.00;;;;;;5048056;28;20207;-74
2021/08/05 10:25:25;;;;;;;26.30;11.25;;;36.80;58.20;;;;;;5035093;28;20183;-75
2021/08/05 10:27:56;;;;;;;30.50;10.85;;;36.80;58.90;;;;;;5044367;28;20211;-75
2021/08/05 10:30:24;;;;;;;33.03;10.85;;;36.90;59.40;;;;;;5029310;28;20571;-75
2021/08/05 10:32:54;;;;;;;29.83;10.95;;;37.00;59.30;;;;;;5034636;28;20309;-76
2021/08/05 10:35:21;;;;;;;23.73;11.48;;;37.20;58.90;;;;;;5035658;28;20188;-75
2021/08/05 10:37:50;;;;;;;31.02;11.63;;;37.50;58.90;;;;;;5037319;28;20176;-75
2021/08/05 10:40:19;;;;;;;24.15;10.65;;;37.70;59.60;;;;;;5031840;28;20183;-75
2021/08/05 10:42:48;;;;;;;37.83;11.18;;;37.90;59.20;;;;;;5063738;28;20184;-75
2021/08/05 10:45:20;;;;;;;20.75;10.35;;;37.70;59.00;;;;;;5026784;28;20184;-75
2021/08/05 10:47:49;;;;;;;21.00;10.13;;;37.40;60.10;;;;;;5046222;28;20576;-75
2021/08/05 10:50:21;;;;;;;18.02;10.13;;;37.40;60.10;;;;;;5026123;28;20204;-75
2021/08/05 10:52:51;;;;;;;24.33;10.73;;;37.10;60.00;;;;;;5043405;28;20196;-75
2021/08/05 10:55:37;;;;;;;29.70;10.95;;;37.10;60.00;;;;;;5055248;28;20580;-76
2021/08/05 10:58:11;;;;;;;24.42;10.35;;;37.00;60.20;;;;;;5046119;28;20200;-75
2021/08/05 11:01:02;;;;;;;40.05;10.93;;;37.00;60.60;;;;;;5044037;28;20184;-74
2021/08/05 11:03:32;;;;;;;31.25;10.60;;;36.80;61.20;;;;;;5027836;28;20199;-74
2021/08/05 11:06:06;;;;;;;19.67;10.50;;;36.90;62.40;;;;;;5027084;28;20187;-73
2021/08/05 11:08:33;;;;;;;33.80;10.65;;;36.80;63.00;;;;;;5044930;28;20206;-73
2021/08/05 11:11:38;;;;;;;24.40;10.68;;;36.80;63.00;;;;;;5042956;28;20211;-75
2021/08/05 11:14:05;;;;;;;15.73;9.65;;;36.70;62.80;;;;;;5068253;28;20189;-76
2021/08/05 11:16:50;;;;;;;23.05;9.75;;;36.70;63.90;;;;;;5065333;28;21324;-76
2021/08/05 11:19:26;;;;;;;16.48;9.65;;;36.60;64.50;;;;;;5036471;28;20195;-76
2021/08/05 11:21:53;;;;;;;20.63;9.10;;;36.60;65.40;;;;;;5045442;28;20624;-73
2021/08/05 11:24:53;;;;;;;21.17;10.18;;;36.60;65.30;;;;;;5031795;28;20246;-75
2021/08/05 11:27:22;;;;;;;26.55;9.20;;;36.50;64.50;;;;;;5040815;28;20224;-74
2021/08/05 11:29:49;;;;;;;22.77;10.13;;;36.40;66.10;;;;;;5030994;28;20257;-74
2021/08/05 11:32:22;;;;;;;19.85;9.23;;;36.50;66.60;;;;;;5042706;28;20195;-74
2021/08/05 11:35:02;;;;;;;17.23;9.15;;;36.50;66.90;;;;;;5042944;28;20918;-74
2021/08/05 11:37:32;;;;;;;22.60;9.68;;;36.60;67.70;;;;;;5042622;28;20286;-77
2021/08/05 11:40:06;;;;;;;12.50;7.93;;;36.60;67.90;;;;;;5031247;28;20195;-76
2021/08/05 11:42:36;;;;;;;25.38;8.25;;;36.60;67.70;;;;;;5025496;28;20778;-77
2021/08/05 11:45:05;;;;;;;22.42;8.77;;;36.60;67.20;;;;;;5044094;28;20278;-76
2021/08/05 11:47:42;;;;;;;24.80;9.10;;;36.60;67.30;;;;;;5058600;28;20266;-76
2021/08/05 11:50:16;;;;;;;17.90;8.88;;;36.30;67.30;;;;;;5024285;28;20219;-76
2021/08/05 11:52:46;;;;;;;22.52;8.35;;;36.40;68.20;;;;;;5045736;28;20628;-76
2021/08/05 11:55:28;;;;;;;23.85;8.45;;;36.20;68.40;;;;;;5037849;28;20279;-77
2021/08/05 11:58:03;;;;;;;22.13;8.75;;;36.30;69.30;;;;;;5042843;28;20195;-76
2021/08/05 12:00:35;;;;;;;17.60;9.00;;;36.30;67.00;;;;;;5043027;28;20564;-76
2021/08/05 12:03:11;;;;;;;22.58;8.88;;;36.50;67.20;;;;;;5037880;28;20199;-74
2021/08/05 12:05:45;;;;;;;23.33;7.93;;;36.40;68.40;;;;;;5029560;28;20282;-76
2021/08/05 12:08:13;;;;;;;26.58;9.18;;;36.50;68.80;;;;;;5036538;28;20577;-75
2021/08/05 12:10:43;;;;;;;14.35;8.77;;;36.30;69.50;;;;;;5041673;28;20208;-73
2021/08/05 12:13:22;;;;;;;18.40;8.95;;;36.20;70.40;;;;;;5010248;28;20871;-75
2021/08/05 12:15:56;;;;;;;19.95;9.10;;;36.30;70.90;;;;;;5042790;28;20188;-76
2021/08/05 12:18:26;;;;;;;21.15;8.93;;;36.40;67.50;;;;;;5043740;28;20221;-76
2021/08/05 12:21:02;;;;;;;22.02;9.68;;;36.50;68.60;;;;;;5042470;28;20211;-73
2021/08/05 12:23:39;;;;;;;24.15;9.60;;;36.50;69.30;;;;;;5024636;28;20192;-77
2021/08/05 12:26:22;;;;;;;25.83;9.68;;;36.50;68.10;;;;;;5040556;28;20195;-77
2021/08/05 12:28:48;;;;;;;21.90;9.80;;;36.40;66.80;;;;;;5041317;28;20215;-75
2021/08/05 12:31:20;;;;;;;17.52;9.68;;;36.40;65.80;;;;;;5055623;28;20245;-75
2021/08/05 12:33:49;;;;;;;26.40;10.50;;;36.40;68.80;;;;;;5055433;28;20276;-76
2021/08/05 12:36:20;;;;;;;24.58;10.13;;;36.40;65.80;;;;;;5041558;28;20179;-75
2021/08/05 12:38:54;;;;;;;22.75;9.73;;;36.40;66.80;;;;;;5051351;28;20611;-75
2021/08/05 12:41:34;;;;;;;24.33;9.38;;;36.40;68.00;;;;;;5042538;28;20196;-76
2021/08/05 12:44:09;;;;;;;28.33;10.88;;;36.30;69.00;;;;;;5044157;28;20187;-76
2021/08/05 12:46:38;;;;;;;20.58;10.23;;;36.00;68.60;;;;;;5041657;28;20271;-76